Time;durP1;ratioP1;P1;durP2;ratioP2;P2;SDS_P1;SDS_P2;PMS_P1;PMS_P2;Temp;Humidity;BMP_temperature;BMP_pressure;BME280_temperature;BME280_humidity;BME280_pressure;Samples;Min_cycle;Max_cycle;Signal;HPM_P1;HPM_P2
2023/04/25 00:01:51;;;;;;;3.10;2.80;;;8.50;99.90;;;;;;5029143;28;20269;-68
2023/04/25 00:04:16;;;;;;;3.17;2.83;;;8.60;99.90;;;;;;5019735;28;20170;-69
2023/04/25 00:06:42;;;;;;;2.97;2.40;;;8.60;99.90;;;;;;5021383;28;20802;-68
2023/04/25 00:09:09;;;;;;;2.67;2.43;;;8.60;99.90;;;;;;5024268;28;20282;-71
2023/04/25 00:11:35;;;;;;;3.77;2.70;;;8.60;99.90;;;;;;5027752;28;20529;-69
2023/04/25 00:14:02;;;;;;;4.13;3.07;;;8.70;99.90;;;;;;5024891;28;20429;-69
2023/04/25 00:16:29;;;;;;;2.70;2.30;;;8.70;99.90;;;;;;5029303;28;20220;-68
2023/04/25 00:18:54;;;;;;;3.93;2.50;;;8.80;99.90;;;;;;5025754;28;20432;-70
2023/04/25 00:21:20;;;;;;;5.73;2.83;;;8.70;99.90;;;;;;5018747;28;20999;-69
2023/04/25 00:23:46;;;;;;;2.37;2.10;;;8.70;99.90;;;;;;5018579;28;20244;-68
2023/04/25 00:26:12;;;;;;;4.80;2.47;;;8.80;99.90;;;;;;5024334;28;20833;-68
2023/04/25 00:28:39;;;;;;;2.90;2.47;;;8.70;99.90;;;;;;5024099;28;20428;-68
2023/04/25 00:31:05;;;;;;;2.87;2.60;;;8.70;99.90;;;;;;5017491;28;20168;-68
2023/04/25 00:33:30;;;;;;;3.60;2.77;;;8.70;99.90;;;;;;5026503;28;20818;-69
2023/04/25 00:35:56;;;;;;;7.30;4.13;;;8.70;99.90;;;;;;5022240;28;20246;-68
2023/04/25 00:38:22;;;;;;;2.70;2.00;;;8.60;99.90;;;;;;5025632;28;20204;-68
2023/04/25 00:40:47;;;;;;;8.43;3.17;;;8.60;99.90;;;;;;5025745;28;20200;-69
2023/04/25 00:43:13;;;;;;;5.30;3.80;;;8.60;99.90;;;;;;5029318;28;20185;-69
2023/04/25 00:45:39;;;;;;;3.83;2.53;;;8.70;99.90;;;;;;5025623;28;20509;-67
2023/04/25 00:48:05;;;;;;;6.83;2.83;;;8.70;99.90;;;;;;5023015;28;20218;-68
2023/04/25 00:50:35;;;;;;;5.07;2.20;;;8.70;99.90;;;;;;5017982;28;20440;-69
2023/04/25 00:53:03;;;;;;;2.83;2.63;;;8.70;99.90;;;;;;5023487;28;20177;-69
2023/04/25 00:55:29;;;;;;;5.20;2.97;;;8.70;99.90;;;;;;5023028;28;20926;-68
2023/04/25 00:57:54;;;;;;;3.30;3.00;;;8.60;99.90;;;;;;5021962;28;20443;-69
2023/04/25 01:00:20;;;;;;;4.30;2.23;;;8.60;99.90;;;;;;5023812;28;20913;-69
2023/04/25 01:02:46;;;;;;;3.20;2.80;;;8.60;99.90;;;;;;5023180;28;20177;-69
2023/04/25 01:05:13;;;;;;;3.83;2.33;;;8.50;99.90;;;;;;5020491;28;20886;-67
2023/04/25 01:07:40;;;;;;;5.13;3.00;;;8.60;99.90;;;;;;5022754;28;20514;-69
2023/04/25 01:10:07;;;;;;;8.30;3.20;;;8.60;99.90;;;;;;5016276;28;20417;-70
2023/04/25 01:12:32;;;;;;;7.27;3.00;;;8.60;99.90;;;;;;5022540;28;20913;-67
2023/04/25 01:14:58;;;;;;;3.00;2.67;;;8.60;99.90;;;;;;5022510;28;20447;-69
2023/04/25 01:17:24;;;;;;;2.83;2.50;;;8.50;99.90;;;;;;5022589;28;20180;-69
2023/04/25 01:19:50;;;;;;;4.00;2.83;;;8.60;99.90;;;;;;5021218;28;20196;-68
2023/04/25 01:22:16;;;;;;;5.00;3.10;;;8.60;99.90;;;;;;5019910;28;20524;-68
2023/04/25 01:24:43;;;;;;;5.53;3.07;;;8.60;99.90;;;;;;5022456;28;20421;-70
2023/04/25 01:27:09;;;;;;;5.30;3.00;;;8.60;99.90;;;;;;5022473;28;20415;-69
2023/04/25 01:29:35;;;;;;;4.17;2.43;;;8.60;99.90;;;;;;5022588;28;20936;-69
2023/04/25 01:32:01;;;;;;;7.73;2.83;;;8.60;99.90;;;;;;5022136;28;20414;-69
2023/04/25 01:34:27;;;;;;;4.10;2.23;;;8.60;99.90;;;;;;5029123;28;20430;-69
2023/04/25 01:36:53;;;;;;;3.43;2.17;;;8.60;99.90;;;;;;5021291;28;20518;-69
2023/04/25 01:39:20;;;;;;;7.07;3.77;;;8.60;99.90;;;;;;5017103;28;20200;-69
2023/04/25 01:41:46;;;;;;;5.03;2.83;;;8.60;99.90;;;;;;5026909;28;20492;-68
2023/04/25 01:44:12;;;;;;;6.57;2.63;;;8.60;99.90;;;;;;5022821;28;20420;-68
2023/04/25 01:46:38;;;;;;;4.47;3.10;;;8.60;99.90;;;;;;5025367;28;20523;-69
2023/04/25 01:49:04;;;;;;;5.07;2.93;;;8.70;99.90;;;;;;5024233;28;20542;-67
2023/04/25 01:51:31;;;;;;;6.30;2.90;;;8.70;99.90;;;;;;5024366;28;20259;-69
2023/04/25 01:53:57;;;;;;;3.87;2.87;;;8.70;99.90;;;;;;5020085;28;20751;-67
2023/04/25 01:56:23;;;;;;;4.47;2.83;;;8.70;99.90;;;;;;5016637;28;20438;-69
2023/04/25 01:58:49;;;;;;;3.40;2.53;;;8.70;99.90;;;;;;5023189;28;20502;-67
2023/04/25 02:01:14;;;;;;;3.20;2.10;;;8.70;99.90;;;;;;5018698;28;20201;-69
2023/04/25 02:03:40;;;;;;;4.10;2.90;;;8.70;99.90;;;;;;5025587;28;20240;-68
2023/04/25 02:06:05;;;;;;;5.37;3.40;;;8.70;99.90;;;;;;5017268;28;20599;-68
2023/04/25 02:08:31;;;;;;;5.07;2.80;;;8.70;99.90;;;;;;5023060;28;20199;-68
2023/04/25 02:10:57;;;;;;;8.10;3.13;;;8.70;99.90;;;;;;5027479;28;20294;-68
2023/04/25 02:13:23;;;;;;;3.93;2.70;;;8.80;99.90;;;;;;5020256;28;20193;-68
2023/04/25 02:15:49;;;;;;;7.00;2.90;;;8.70;99.90;;;;;;5027439;28;20424;-68
2023/04/25 02:18:16;;;;;;;4.40;2.50;;;8.80;99.90;;;;;;5024021;28;20250;-68
2023/04/25 02:20:42;;;;;;;6.70;4.10;;;8.80;99.90;;;;;;5021924;28;20292;-69
2023/04/25 02:23:08;;;;;;;8.57;3.07;;;8.70;99.90;;;;;;5025151;28;20412;-69
2023/04/25 02:25:33;;;;;;;8.57;2.80;;;8.70;99.90;;;;;;5016847;28;20466;-68
2023/04/25 02:27:59;;;;;;;5.30;3.13;;;8.70;99.90;;;;;;5025222;28;20197;-68
2023/04/25 02:30:25;;;;;;;6.33;3.63;;;8.60;99.90;;;;;;5015867;28;20211;-68
2023/04/25 02:32:50;;;;;;;6.77;2.80;;;8.60;99.90;;;;;;5022865;28;20200;-69
2023/04/25 02:35:16;;;;;;;4.90;3.77;;;8.60;99.90;;;;;;5020853;28;20172;-70
2023/04/25 02:37:42;;;;;;;5.17;3.40;;;8.60;99.90;;;;;;5021662;28;20218;-69
2023/04/25 02:40:08;;;;;;;3.90;3.17;;;8.60;99.90;;;;;;5015216;28;20270;-67
2023/04/25 02:42:34;;;;;;;6.50;3.90;;;8.60;99.90;;;;;;5023009;28;20176;-68
2023/04/25 02:44:59;;;;;;;3.53;3.23;;;8.60;99.90;;;;;;5016676;28;20438;-67
2023/04/25 02:47:25;;;;;;;4.77;3.37;;;8.60;99.90;;;;;;5024066;28;20171;-69
2023/04/25 02:49:50;;;;;;;6.93;3.93;;;8.60;99.90;;;;;;5001146;28;20177;-69
2023/04/25 02:52:16;;;;;;;6.73;3.50;;;8.60;99.90;;;;;;5021691;28;20682;-68
2023/04/25 02:54:42;;;;;;;9.03;4.47;;;8.60;99.90;;;;;;5022812;28;20187;-70
2023/04/25 02:57:08;;;;;;;6.23;3.70;;;8.60;99.90;;;;;;5013280;28;20176;-68
2023/04/25 02:59:34;;;;;;;7.60;4.00;;;8.60;99.90;;;;;;5025566;28;20577;-68
2023/04/25 03:01:59;;;;;;;6.30;3.90;;;8.50;99.90;;;;;;5003152;28;20514;-68
2023/04/25 03:04:25;;;;;;;4.47;4.07;;;8.60;99.90;;;;;;5025354;28;20913;-70
2023/04/25 03:06:51;;;;;;;3.90;3.33;;;8.60;99.90;;;;;;5024841;28;20635;-69
2023/04/25 03:09:17;;;;;;;10.23;4.40;;;8.60;99.90;;;;;;5020754;28;20246;-69
2023/04/25 03:11:44;;;;;;;5.70;4.13;;;8.60;99.90;;;;;;5023242;28;20422;-69
2023/04/25 03:14:10;;;;;;;5.80;4.03;;;8.60;99.90;;;;;;5025073;28;20168;-68
2023/04/25 03:16:35;;;;;;;9.13;4.90;;;8.50;99.90;;;;;;5020177;28;20485;-68
2023/04/25 03:19:02;;;;;;;5.70;4.90;;;8.60;99.90;;;;;;5024795;28;20204;-69
2023/04/25 03:21:28;;;;;;;5.50;3.80;;;8.60;99.90;;;;;;5030622;28;20761;-68
2023/04/25 03:23:54;;;;;;;4.90;3.90;;;8.60;99.90;;;;;;5007381;28;20781;-69
2023/04/25 03:26:20;;;;;;;5.07;3.90;;;8.60;99.90;;;;;;5025178;28;20526;-69
2023/04/25 03:28:46;;;;;;;3.80;3.37;;;8.60;99.90;;;;;;5030849;28;20191;-69
2023/04/25 03:31:11;;;;;;;4.53;3.70;;;8.60;99.90;;;;;;5024965;28;20780;-68
2023/04/25 03:33:37;;;;;;;5.53;4.13;;;8.60;99.90;;;;;;5023603;28;20177;-68
2023/04/25 03:36:03;;;;;;;9.67;5.27;;;8.60;99.90;;;;;;5024035;28;20183;-67
2023/04/25 03:38:28;;;;;;;9.13;4.20;;;8.60;99.90;;;;;;5024832;28;20215;-68
2023/04/25 03:40:56;;;;;;;8.53;3.93;;;8.60;99.90;;;;;;5030143;28;20463;-67
2023/04/25 03:43:21;;;;;;;7.60;4.20;;;8.60;99.90;;;;;;5028151;28;20179;-69
2023/04/25 03:45:47;;;;;;;9.67;6.30;;;8.60;99.90;;;;;;5030270;28;20422;-69
2023/04/25 03:48:12;;;;;;;8.13;4.77;;;8.60;99.90;;;;;;5018844;28;20294;-69
2023/04/25 03:50:38;;;;;;;5.63;3.97;;;8.50;99.90;;;;;;5017826;28;20556;-69
2023/04/25 03:53:04;;;;;;;6.63;3.77;;;8.50;99.90;;;;;;5029380;28;20227;-67
2023/04/25 03:55:29;;;;;;;10.40;3.70;;;8.50;99.90;;;;;;5024419;28;20185;-68
2023/04/25 03:57:55;;;;;;;7.47;3.87;;;8.60;99.90;;;;;;5016152;28;20618;-68
2023/04/25 04:00:20;;;;;;;7.03;3.97;;;8.50;99.90;;;;;;5024323;28;20198;-68
2023/04/25 04:02:46;;;;;;;4.13;2.93;;;8.50;99.90;;;;;;5024057;28;20234;-68
2023/04/25 04:05:12;;;;;;;5.07;3.53;;;8.50;99.90;;;;;;5022806;28;20367;-68
2023/04/25 04:07:39;;;;;;;6.77;3.97;;;8.50;99.90;;;;;;5019335;28;20509;-68
2023/04/25 04:10:14;;;;;;;4.03;3.60;;;8.50;99.90;;;;;;5029891;28;20507;-69
2023/04/25 04:12:40;;;;;;;8.20;3.50;;;8.50;99.90;;;;;;5024427;28;20419;-68
2023/04/25 04:15:06;;;;;;;6.23;3.80;;;8.50;99.90;;;;;;5022734;28;20407;-68
2023/04/25 04:17:32;;;;;;;5.20;3.67;;;8.40;99.90;;;;;;5024066;28;20168;-70
2023/04/25 04:19:58;;;;;;;7.90;3.90;;;8.50;99.90;;;;;;5023686;28;20738;-69
2023/04/25 04:22:24;;;;;;;6.40;3.43;;;8.50;99.90;;;;;;5023863;28;20434;-68
2023/04/25 04:24:50;;;;;;;5.10;3.40;;;8.60;99.90;;;;;;5026313;28;20233;-69
2023/04/25 04:27:17;;;;;;;4.37;3.07;;;8.60;99.90;;;;;;5028525;28;20525;-69
2023/04/25 04:29:43;;;;;;;5.77;4.03;;;8.50;99.90;;;;;;5023624;28;20454;-68
2023/04/25 04:32:09;;;;;;;6.10;3.10;;;8.60;99.90;;;;;;5015689;28;20506;-68
2023/04/25 04:34:35;;;;;;;4.30;3.70;;;8.60;99.90;;;;;;5023916;28;20245;-68
2023/04/25 04:37:01;;;;;;;7.53;4.17;;;8.60;99.90;;;;;;5005633;28;20651;-69
2023/04/25 04:39:26;;;;;;;4.80;3.47;;;8.60;99.90;;;;;;5022328;28;20872;-70
2023/04/25 04:41:53;;;;;;;8.27;3.60;;;8.60;99.90;;;;;;5022294;28;20458;-69
2023/04/25 04:44:19;;;;;;;4.30;3.33;;;8.50;99.90;;;;;;5023658;28;20292;-69
2023/04/25 04:46:46;;;;;;;4.10;3.00;;;8.50;99.90;;;;;;5019939;28;20761;-69
2023/04/25 04:49:13;;;;;;;5.30;3.63;;;8.50;99.90;;;;;;5006992;28;20462;-69
2023/04/25 04:51:40;;;;;;;6.33;3.50;;;8.60;99.90;;;;;;5019835;28;20424;-69
2023/04/25 04:54:05;;;;;;;5.97;4.20;;;8.70;99.90;;;;;;5027696;28;20423;-68
2023/04/25 04:56:31;;;;;;;5.83;3.30;;;8.80;99.90;;;;;;5011466;28;20467;-71
2023/04/25 04:58:58;;;;;;;4.80;3.60;;;8.80;99.90;;;;;;5026483;28;20204;-69
2023/04/25 05:01:24;;;;;;;7.73;3.60;;;8.80;99.90;;;;;;5022626;28;20472;-68
2023/04/25 05:03:49;;;;;;;7.37;3.53;;;8.90;99.90;;;;;;5027640;28;20422;-68
2023/04/25 05:06:17;;;;;;;7.57;4.27;;;8.80;99.90;;;;;;5020599;28;20403;-68
2023/04/25 05:08:42;;;;;;;7.80;3.70;;;8.80;99.90;;;;;;5030299;28;20197;-68
2023/04/25 05:11:08;;;;;;;4.57;3.70;;;8.80;99.90;;;;;;5024591;28;20526;-68
2023/04/25 05:13:33;;;;;;;4.90;3.60;;;8.90;99.90;;;;;;5029456;28;20269;-68
2023/04/25 05:15:59;;;;;;;7.77;2.80;;;8.80;99.90;;;;;;5027252;28;20564;-69
2023/04/25 05:18:25;;;;;;;9.40;3.63;;;8.80;99.90;;;;;;5022874;28;20200;-69
2023/04/25 05:20:50;;;;;;;5.27;3.87;;;8.80;99.90;;;;;;5027541;28;20621;-68
2023/04/25 05:23:16;;;;;;;6.90;3.93;;;8.80;99.90;;;;;;5023096;28;20277;-68
2023/04/25 05:25:42;;;;;;;4.97;4.10;;;8.90;99.90;;;;;;5022725;28;20177;-68
2023/04/25 05:28:07;;;;;;;8.50;4.13;;;8.80;99.90;;;;;;5021096;28;20642;-70
2023/04/25 05:30:34;;;;;;;4.30;3.90;;;8.80;99.90;;;;;;5020568;28;20186;-69
2023/04/25 05:33:00;;;;;;;4.43;3.80;;;8.90;99.90;;;;;;5028531;28;20270;-69
2023/04/25 05:35:26;;;;;;;3.70;3.30;;;9.00;99.90;;;;;;5023895;28;20961;-68
2023/04/25 05:37:51;;;;;;;4.67;3.43;;;9.00;99.90;;;;;;5029819;28;20201;-69
2023/04/25 05:40:17;;;;;;;4.13;3.17;;;9.10;99.90;;;;;;5018965;28;20185;-68
2023/04/25 05:42:43;;;;;;;7.50;3.80;;;9.00;99.90;;;;;;5022256;28;20187;-69
2023/04/25 05:45:09;;;;;;;6.40;3.33;;;9.10;99.90;;;;;;5023893;28;20173;-69
2023/04/25 05:47:35;;;;;;;7.77;5.67;;;9.10;99.90;;;;;;5022885;28;20551;-68
2023/04/25 05:50:00;;;;;;;5.10;3.30;;;9.00;99.90;;;;;;5021290;28;20435;-70
2023/04/25 05:52:26;;;;;;;6.63;4.53;;;9.00;99.90;;;;;;5022073;28;20184;-68
2023/04/25 05:54:52;;;;;;;9.33;4.73;;;9.10;99.90;;;;;;5020679;28;20549;-68
2023/04/25 05:57:25;;;;;;;5.20;4.07;;;9.00;99.90;;;;;;5022609;28;20271;-68
2023/04/25 05:59:52;;;;;;;8.53;4.20;;;9.10;99.90;;;;;;5019298;28;20177;-69
2023/04/25 06:02:18;;;;;;;14.13;5.50;;;9.10;99.90;;;;;;5027662;28;20470;-68
2023/04/25 06:04:44;;;;;;;6.63;4.70;;;9.00;99.90;;;;;;5021295;28;20487;-68
2023/04/25 06:07:09;;;;;;;8.97;4.67;;;9.00;99.90;;;;;;5017831;28;20503;-68
2023/04/25 06:09:35;;;;;;;5.60;4.00;;;9.10;99.90;;;;;;5017118;28;20668;-70
2023/04/25 06:12:01;;;;;;;10.60;4.87;;;9.20;99.90;;;;;;5020973;28;20176;-67
2023/04/25 06:14:27;;;;;;;7.43;5.23;;;9.30;99.90;;;;;;5021526;28;20241;-67
2023/04/25 06:16:53;;;;;;;7.13;5.43;;;9.40;99.90;;;;;;5016687;28;20529;-68
2023/04/25 06:19:18;;;;;;;9.03;4.30;;;9.30;99.90;;;;;;5021757;28;20274;-68
2023/04/25 06:21:44;;;;;;;7.87;3.50;;;9.40;99.90;;;;;;5021393;28;20286;-67
2023/04/25 06:24:10;;;;;;;7.40;5.10;;;9.40;99.90;;;;;;5026515;28;20195;-68
2023/04/25 06:26:35;;;;;;;11.47;5.33;;;9.50;99.90;;;;;;5028240;28;20175;-69
2023/04/25 06:29:01;;;;;;;6.80;4.90;;;9.40;99.90;;;;;;5022152;28;20606;-68
2023/04/25 06:31:28;;;;;;;6.27;4.50;;;9.30;99.90;;;;;;5027383;28;20188;-68
2023/04/25 06:33:54;;;;;;;5.13;4.20;;;9.20;99.90;;;;;;5028005;28;20468;-69
2023/04/25 06:36:24;;;;;;;5.67;4.27;;;9.20;99.90;;;;;;5025907;28;20425;-69
2023/04/25 06:38:51;;;;;;;5.80;4.70;;;9.40;99.90;;;;;;5026215;28;20488;-68
2023/04/25 06:41:17;;;;;;;8.00;4.80;;;9.20;99.90;;;;;;5030691;28;20579;-69
2023/04/25 06:43:42;;;;;;;12.17;4.17;;;9.10;99.90;;;;;;5027694;28;20425;-72
2023/04/25 06:46:08;;;;;;;5.80;4.30;;;9.20;99.90;;;;;;5032395;28;20218;-69
2023/04/25 06:48:33;;;;;;;8.67;4.70;;;9.10;99.90;;;;;;5023088;28;20247;-68
2023/04/25 06:50:59;;;;;;;6.20;4.33;;;9.20;99.90;;;;;;5020446;28;20178;-68
2023/04/25 06:53:25;;;;;;;8.60;5.50;;;9.30;99.90;;;;;;5020086;28;20771;-67
2023/04/25 06:55:50;;;;;;;6.83;5.00;;;9.30;99.90;;;;;;5023357;28;20183;-67
2023/04/25 06:58:16;;;;;;;5.77;4.37;;;9.30;99.90;;;;;;5020350;28;20697;-69
2023/04/25 07:00:42;;;;;;;7.60;5.37;;;9.10;99.90;;;;;;5026329;28;20258;-68
2023/04/25 07:03:07;;;;;;;10.90;4.30;;;8.90;99.90;;;;;;5022719;28;20246;-69
2023/04/25 07:05:33;;;;;;;7.50;4.07;;;8.90;99.90;;;;;;5024667;28;20207;-68
2023/04/25 07:08:00;;;;;;;7.63;3.93;;;8.90;99.90;;;;;;5020674;28;20226;-67
2023/04/25 07:10:25;;;;;;;5.00;3.23;;;8.90;99.90;;;;;;5019904;28;20182;-68
2023/04/25 07:12:51;;;;;;;6.90;4.27;;;9.00;99.90;;;;;;5022458;28;20465;-68
2023/04/25 07:15:17;;;;;;;6.80;4.13;;;9.20;99.90;;;;;;5002035;28;21042;-68
2023/04/25 07:17:42;;;;;;;5.30;3.97;;;9.00;99.90;;;;;;5025149;28;20177;-69
2023/04/25 07:20:09;;;;;;;6.97;4.50;;;9.00;99.90;;;;;;5021195;28;20228;-68
2023/04/25 07:22:35;;;;;;;11.10;4.17;;;8.80;99.90;;;;;;5026687;28;20209;-68
2023/04/25 07:25:01;;;;;;;6.70;4.10;;;8.90;99.90;;;;;;5019777;28;20446;-69
2023/04/25 07:27:27;;;;;;;5.40;4.00;;;8.90;99.90;;;;;;5019304;28;20411;-69
2023/04/25 07:29:53;;;;;;;8.13;5.17;;;8.80;99.90;;;;;;5022415;28;20411;-69
2023/04/25 07:32:19;;;;;;;4.47;3.60;;;8.80;99.90;;;;;;5019443;28;20526;-69
2023/04/25 07:34:45;;;;;;;5.63;3.87;;;9.00;99.90;;;;;;5024810;28;20180;-69
2023/04/25 07:37:11;;;;;;;7.83;3.73;;;9.00;99.90;;;;;;5020714;28;20414;-69
2023/04/25 07:39:37;;;;;;;5.57;4.10;;;9.00;99.90;;;;;;5024754;28;20357;-68
2023/04/25 07:42:03;;;;;;;6.20;2.87;;;9.20;99.90;;;;;;5024077;28;20460;-70
2023/04/25 07:44:30;;;;;;;6.70;4.17;;;9.00;99.90;;;;;;5024249;28;20417;-68
2023/04/25 07:46:56;;;;;;;4.67;3.67;;;9.00;99.90;;;;;;5029022;28;20461;-68
2023/04/25 07:49:21;;;;;;;8.80;4.50;;;9.20;99.90;;;;;;5022859;28;20931;-69
2023/04/25 07:51:47;;;;;;;4.30;2.73;;;9.40;99.90;;;;;;5021786;28;20514;-69
2023/04/25 07:54:15;;;;;;;7.10;3.73;;;9.20;99.90;;;;;;5024757;28;20292;-68
2023/04/25 07:56:41;;;;;;;3.07;2.57;;;9.40;99.90;;;;;;5021391;28;20540;-69
2023/04/25 07:59:06;;;;;;;14.33;3.60;;;9.30;99.90;;;;;;5028568;28;20433;-68
2023/04/25 08:01:33;;;;;;;18.60;3.80;;;9.20;99.90;;;;;;5028139;28;20276;-67
2023/04/25 08:03:59;;;;;;;15.17;3.50;;;9.30;99.90;;;;;;5029427;28;20176;-69
2023/04/25 08:06:25;;;;;;;7.30;2.93;;;9.30;99.90;;;;;;5022374;28;20473;-68
2023/04/25 08:08:51;;;;;;;4.50;3.43;;;9.50;99.90;;;;;;5021360;28;20437;-68
2023/04/25 08:11:17;;;;;;;15.13;3.40;;;9.50;99.90;;;;;;5026686;28;20197;-70
2023/04/25 08:13:42;;;;;;;7.50;4.20;;;9.50;99.90;;;;;;5020883;28;20184;-69
2023/04/25 08:16:08;;;;;;;13.77;3.60;;;9.60;99.90;;;;;;5023591;28;20203;-67
2023/04/25 08:18:33;;;;;;;8.80;5.10;;;9.70;99.90;;;;;;5019896;28;20211;-69
2023/04/25 08:20:59;;;;;;;10.77;2.47;;;9.90;99.90;;;;;;5006303;28;20196;-69
2023/04/25 08:23:25;;;;;;;13.27;4.80;;;9.60;99.90;;;;;;5024114;28;20192;-68
2023/04/25 08:25:50;;;;;;;10.17;3.90;;;9.50;99.90;;;;;;5015842;28;20188;-68
2023/04/25 08:28:16;;;;;;;9.93;3.53;;;9.70;99.90;;;;;;5020656;28;20224;-69
2023/04/25 08:30:42;;;;;;;8.10;3.43;;;10.20;99.90;;;;;;5017581;28;20331;-66
2023/04/25 08:33:07;;;;;;;9.03;2.90;;;10.30;99.90;;;;;;5023844;28;20555;-67
2023/04/25 08:35:33;;;;;;;7.30;3.23;;;10.40;99.90;;;;;;5019876;28;20249;-69
2023/04/25 08:38:00;;;;;;;10.07;3.43;;;10.40;99.90;;;;;;5023564;28;20196;-67
2023/04/25 08:40:29;;;;;;;12.23;3.27;;;10.30;99.90;;;;;;5023062;28;20422;-68
2023/04/25 08:42:57;;;;;;;6.90;3.77;;;10.30;99.90;;;;;;5020993;28;20431;-68
2023/04/25 08:45:23;;;;;;;7.67;2.97;;;10.50;99.90;;;;;;5019033;28;20413;-69
2023/04/25 08:47:52;;;;;;;8.27;3.67;;;10.70;99.90;;;;;;5025308;28;20447;-68
2023/04/25 08:50:21;;;;;;;7.13;2.50;;;10.60;99.90;;;;;;5016454;28;20234;-69
2023/04/25 08:52:49;;;;;;;6.73;2.17;;;10.30;99.90;;;;;;5018051;28;20437;-68
2023/04/25 08:55:15;;;;;;;11.07;2.90;;;11.00;99.90;;;;;;5019024;28;20916;-71
2023/04/25 08:57:45;;;;;;;5.40;3.07;;;11.80;99.90;;;;;;5013869;28;20435;-69
2023/04/25 09:00:15;;;;;;;9.57;2.60;;;12.10;99.90;;;;;;5022401;28;20412;-68
2023/04/25 09:02:43;;;;;;;7.20;3.17;;;12.60;99.90;;;;;;5003672;28;20509;-69
2023/04/25 09:05:12;;;;;;;8.00;2.57;;;12.50;99.90;;;;;;5024863;28;20403;-69
2023/04/25 09:07:37;;;;;;;4.90;2.57;;;13.10;99.90;;;;;;5014957;28;20509;-68
2023/04/25 09:10:03;;;;;;;8.90;2.77;;;13.10;99.90;;;;;;5020747;28;20496;-68
2023/04/25 09:12:30;;;;;;;5.67;4.10;;;12.90;99.90;;;;;;5016764;28;20583;-69
2023/04/25 09:15:12;;;;;;;6.90;2.83;;;13.60;99.90;;;;;;5019935;28;20534;-68
2023/04/25 09:17:41;;;;;;;10.17;2.20;;;14.00;99.90;;;;;;5018725;28;20490;-68
2023/04/25 09:20:13;;;;;;;9.73;2.33;;;15.10;99.90;;;;;;5028960;28;20423;-68
2023/04/25 09:22:38;;;;;;;6.10;2.10;;;13.60;99.90;;;;;;5024433;28;20421;-67
2023/04/25 09:25:12;;;;;;;8.17;2.73;;;13.50;99.90;;;;;;5025299;28;20520;-68
2023/04/25 09:27:52;;;;;;;5.00;2.43;;;13.60;99.90;;;;;;5014526;28;20465;-69
2023/04/25 09:30:28;;;;;;;4.53;2.80;;;14.30;99.90;;;;;;5022044;28;20437;-67
2023/04/25 09:32:57;;;;;;;8.20;3.20;;;13.80;99.90;;;;;;5019804;28;20486;-67
2023/04/25 09:35:25;;;;;;;4.13;2.60;;;13.80;99.90;;;;;;5024170;28;20423;-68
2023/04/25 09:37:51;;;;;;;6.87;2.27;;;13.90;99.90;;;;;;5019580;28;20533;-68
2023/04/25 09:40:18;;;;;;;7.50;2.60;;;13.60;99.90;;;;;;5021879;28;20439;-68
2023/04/25 09:42:43;;;;;;;5.33;2.37;;;13.20;99.90;;;;;;5019444;28;20235;-70
2023/04/25 09:45:13;;;;;;;8.20;2.83;;;12.80;99.90;;;;;;5027592;28;20416;-68
2023/04/25 09:47:38;;;;;;;6.57;2.73;;;12.50;99.90;;;;;;5020102;28;20226;-69
2023/04/25 09:50:17;;;;;;;9.87;2.80;;;12.70;99.90;;;;;;5021029;28;20473;-68
2023/04/25 09:52:43;;;;;;;7.00;2.33;;;12.80;99.90;;;;;;5013262;28;20187;-69
2023/04/25 09:55:08;;;;;;;10.03;2.77;;;12.90;99.90;;;;;;5017916;28;20419;-68
2023/04/25 09:57:39;;;;;;;3.50;2.37;;;12.80;99.90;;;;;;5025157;28;20422;-70
2023/04/25 10:00:09;;;;;;;4.90;2.00;;;12.40;99.90;;;;;;5021111;28;20176;-68
2023/04/25 10:02:37;;;;;;;9.43;2.80;;;12.60;99.90;;;;;;5004519;28;20493;-68
2023/04/25 10:05:07;;;;;;;4.00;2.03;;;12.60;99.90;;;;;;5021394;28;20852;-69
2023/04/25 10:07:37;;;;;;;2.70;1.70;;;12.70;99.90;;;;;;5021372;28;20428;-68
2023/04/25 10:10:04;;;;;;;10.90;3.10;;;12.90;99.90;;;;;;5014504;28;20525;-69
2023/04/25 10:12:32;;;;;;;6.87;3.07;;;12.70;99.60;;;;;;5023668;28;20453;-69
2023/04/25 10:14:59;;;;;;;5.33;2.17;;;12.20;99.90;;;;;;5021132;28;20415;-69
2023/04/25 10:17:27;;;;;;;9.33;2.40;;;12.20;99.90;;;;;;5017200;28;20442;-68
2023/04/25 10:19:54;;;;;;;3.23;2.10;;;12.30;99.90;;;;;;5021413;28;20905;-68
2023/04/25 10:22:42;;;;;;;5.80;2.10;;;12.70;99.90;;;;;;5021027;28;20454;-69
2023/04/25 10:25:08;;;;;;;4.70;2.40;;;12.90;99.10;;;;;;5018614;28;21073;-68
2023/04/25 10:27:35;;;;;;;8.17;2.93;;;12.30;99.40;;;;;;5025049;28;20472;-69
2023/04/25 10:30:10;;;;;;;7.93;2.03;;;12.50;99.30;;;;;;5018958;28;20493;-69
2023/04/25 10:32:36;;;;;;;8.23;1.80;;;12.60;98.50;;;;;;5025483;28;20422;-68
2023/04/25 10:35:23;;;;;;;8.00;2.53;;;12.80;98.20;;;;;;5018663;28;20468;-69
2023/04/25 10:38:09;;;;;;;4.00;2.00;;;11.80;98.60;;;;;;5026136;28;20255;-68
2023/04/25 10:40:35;;;;;;;4.40;2.40;;;11.60;98.50;;;;;;5021305;28;20481;-68
2023/04/25 10:43:39;;;;;;;6.67;1.97;;;11.70;99.40;;;;;;5017500;28;20521;-67
2023/04/25 10:46:26;;;;;;;6.80;2.60;;;11.80;99.50;;;;;;5020535;28;20417;-69
2023/04/25 10:48:56;;;;;;;4.17;2.37;;;11.90;99.00;;;;;;5019481;28;20461;-69
2023/04/25 10:51:26;;;;;;;7.17;2.10;;;11.90;98.80;;;;;;5008434;28;20435;-68
2023/04/25 10:53:55;;;;;;;4.40;2.20;;;11.50;98.30;;;;;;5025558;28;20422;-67
2023/04/25 10:56:27;;;;;;;14.43;7.53;;;11.30;98.10;;;;;;5017993;28;20505;-69
2023/04/25 10:59:02;;;;;;;8.00;2.57;;;11.50;98.40;;;;;;5024541;28;20448;-68
2023/04/25 11:01:38;;;;;;;6.77;3.37;;;12.10;98.00;;;;;;5024582;28;20454;-69
2023/04/25 11:04:04;;;;;;;7.30;2.33;;;11.90;97.20;;;;;;5025573;28;20491;-69
2023/04/25 11:06:42;;;;;;;5.63;2.00;;;11.90;96.70;;;;;;5019834;28;20443;-69
2023/04/25 11:09:14;;;;;;;4.97;2.30;;;11.80;98.00;;;;;;5018593;28;20248;-70
2023/04/25 11:11:40;;;;;;;5.60;2.40;;;12.40;98.00;;;;;;5019505;28;21046;-68
2023/04/25 11:14:06;;;;;;;6.40;3.00;;;12.20;98.00;;;;;;5027402;28;20490;-69
2023/04/25 11:16:32;;;;;;;7.43;3.10;;;11.90;97.30;;;;;;5012944;28;20537;-68
2023/04/25 11:18:58;;;;;;;5.37;2.07;;;11.40;97.80;;;;;;5002365;28;20203;-69
2023/04/25 11:21:27;;;;;;;4.70;2.03;;;10.90;97.80;;;;;;5019546;28;20250;-66
2023/04/25 11:23:54;;;;;;;6.90;2.00;;;10.80;98.80;;;;;;5010834;28;21277;-68
2023/04/25 11:26:20;;;;;;;5.10;2.10;;;10.40;99.20;;;;;;4999292;28;20535;-68
2023/04/25 11:28:46;;;;;;;9.93;2.90;;;10.80;99.20;;;;;;5015959;28;20527;-67
2023/04/25 11:31:12;;;;;;;2.30;1.80;;;10.50;98.30;;;;;;5019886;28;20534;-67
2023/04/25 11:33:38;;;;;;;4.77;1.77;;;10.60;98.40;;;;;;5018593;28;20886;-66
2023/04/25 11:36:05;;;;;;;3.40;2.30;;;10.90;98.10;;;;;;5012052;28;20403;-69
2023/04/25 11:38:30;;;;;;;5.20;1.80;;;11.10;97.60;;;;;;5011936;28;20214;-67
2023/04/25 11:40:57;;;;;;;7.50;2.07;;;11.20;96.90;;;;;;5017782;28;20549;-68
2023/04/25 11:43:22;;;;;;;1.77;1.40;;;11.00;96.90;;;;;;5013377;28;20181;-67
2023/04/25 11:45:52;;;;;;;5.53;2.40;;;11.00;96.60;;;;;;5011722;28;21146;-66
2023/04/25 11:48:18;;;;;;;6.73;2.33;;;11.60;96.20;;;;;;5023240;28;21011;-67
2023/04/25 11:50:44;;;;;;;6.40;2.30;;;11.60;96.20;;;;;;5022247;28;20453;-68
2023/04/25 11:53:10;;;;;;;11.80;2.27;;;11.60;95.50;;;;;;5012914;28;20406;-67
2023/04/25 11:55:36;;;;;;;7.33;2.27;;;11.40;95.60;;;;;;5007456;28;20793;-67
2023/04/25 11:58:03;;;;;;;5.67;2.20;;;11.60;95.60;;;;;;5011541;28;20466;-69
2023/04/25 12:00:30;;;;;;;5.80;1.70;;;11.80;95.20;;;;;;4999694;28;20189;-68
2023/04/25 12:03:00;;;;;;;2.90;2.00;;;12.00;95.70;;;;;;5014553;28;20544;-68
2023/04/25 12:05:28;;;;;;;10.53;2.30;;;11.90;96.40;;;;;;5006760;28;20867;-68
2023/04/25 12:07:53;;;;;;;5.03;1.90;;;11.90;95.60;;;;;;5005346;28;20535;-72
2023/04/25 12:10:19;;;;;;;5.13;2.00;;;12.30;95.60;;;;;;5017250;28;20486;-68
2023/04/25 12:12:47;;;;;;;10.23;2.00;;;12.00;95.60;;;;;;5014053;28;20534;-68
2023/04/25 12:15:15;;;;;;;5.50;2.00;;;12.10;95.50;;;;;;5007590;28;20314;-69
2023/04/25 12:17:49;;;;;;;6.20;2.30;;;11.80;96.00;;;;;;5013039;28;20400;-68
2023/04/25 12:20:20;;;;;;;5.37;1.97;;;11.80;95.70;;;;;;5015117;28;20483;-68
2023/04/25 12:22:47;;;;;;;9.07;1.87;;;11.70;95.80;;;;;;5015703;28;20422;-69
2023/04/25 12:25:33;;;;;;;10.03;2.43;;;11.50;95.70;;;;;;5010512;28;20411;-68
2023/04/25 12:28:19;;;;;;;5.43;2.00;;;11.50;95.30;;;;;;5011117;28;20501;-68
2023/04/25 12:30:54;;;;;;;5.10;2.33;;;11.70;95.50;;;;;;5009709;28;20418;-68
2023/04/25 12:33:21;;;;;;;5.73;2.10;;;11.70;95.30;;;;;;5017473;28;20494;-68
2023/04/25 12:35:47;;;;;;;3.00;2.00;;;11.70;94.70;;;;;;5019364;28;20411;-68
2023/04/25 12:38:24;;;;;;;6.87;1.93;;;11.70;94.50;;;;;;5009686;28;20422;-68
2023/04/25 12:40:50;;;;;;;2.67;1.73;;;11.50;94.00;;;;;;5012007;28;20501;-69
2023/04/25 12:43:15;;;;;;;3.40;1.50;;;12.00;94.30;;;;;;5007512;28;20443;-69
2023/04/25 12:45:50;;;;;;;3.90;2.00;;;11.60;93.70;;;;;;4998004;28;20263;-77
2023/04/25 12:48:16;;;;;;;138.63;79.90;;;11.80;95.00;;;;;;5009366;28;20230;-69
2023/04/25 12:50:42;;;;;;;4.40;2.20;;;12.80;99.90;;;;;;4999216;28;20968;-69
2023/04/25 12:53:08;;;;;;;59.80;35.10;;;12.10;94.70;;;;;;5011329;28;20426;-69